KELY/ELY METAR and TAF weather

Enter ICAO airport designator
Station Type Date Time Source
KELY METAR 2022/12/10 00:53 UTC NOAA

KELY 100053Z AUTO 17009KT 10SM CLR M04/M08 A3005 RMK AO2 SLP203 T10441083


Station Type Date Time Source
KELY Decoded METAR 2022/12/10 00:53 UTC NOAA

ELY AIRPORT (YELLAND FIELD), NV, United States (KELY) 39-18N 114-51W 1906M
Dec 09, 2022 - 07:53 PM EST / 2022.12.10 0053 UTC
Wind: from the S (170 degrees) at 10 MPH (9 KT):0
Visibility: 10 mile(s):0
Sky conditions: clear
Temperature: 24.1 F (-4.4 C)
Windchill: 14 F (-10 C):1
Dew Point: 17.1 F (-8.3 C)
Relative Humidity: 74%
Pressure (altimeter): 30.05 in. Hg (1017 hPa)
ob: KELY 100053Z AUTO 17009KT 10SM CLR M04/M08 A3005 RMK AO2 SLP203 T10441083
cycle: 1

Station Type Date Time Source
KELY TAF 2022/12/09 18:22 UTC NOAA

TAF KELY 091720Z 0918/1018 21006KT P6SM BKN060
FM100200 18018G28KT P6SM BKN080 OVC200

Example: see airport list